createdAt,value
2023-04-05T00:02:00.355Z,63.10
2023-04-05T00:04:28.680Z,62.90
2023-04-05T00:06:57.390Z,62.00
2023-04-05T00:09:24.116Z,61.20
2023-04-05T00:11:50.738Z,61.40
2023-04-05T00:14:17.335Z,61.50
2023-04-05T00:16:43.990Z,61.60
2023-04-05T00:19:12.980Z,62.10
2023-04-05T00:21:39.865Z,62.00
2023-04-05T00:24:15.264Z,62.40
2023-04-05T00:26:43.977Z,62.60
2023-04-05T00:29:10.714Z,62.90
2023-04-05T00:31:39.741Z,62.50
2023-04-05T00:34:09.099Z,62.70
2023-04-05T00:36:38.280Z,62.40
2023-04-05T00:39:04.976Z,63.10
2023-04-05T00:41:33.818Z,63.10
2023-04-05T00:44:00.692Z,62.80
2023-04-05T00:46:28.060Z,62.40
2023-04-05T00:48:54.948Z,64.20
2023-04-05T00:51:24.161Z,63.00
2023-04-05T00:53:52.775Z,63.00
2023-04-05T00:56:21.644Z,63.00
2023-04-05T00:58:51.742Z,63.50
2023-04-05T01:01:22.402Z,64.00
2023-04-05T01:03:59.700Z,63.80
2023-04-05T01:06:29.209Z,64.90
2023-04-05T01:09:11.391Z,64.40
2023-04-05T01:11:41.621Z,63.70
2023-04-05T01:14:08.206Z,64.30
2023-04-05T01:16:34.853Z,64.10
2023-04-05T01:19:01.575Z,64.50
2023-04-05T01:21:40.037Z,64.30
2023-04-05T01:24:25.524Z,64.20
2023-04-05T01:27:04.226Z,63.90
2023-04-05T01:29:30.785Z,64.30
2023-04-05T01:32:05.420Z,65.80
2023-04-05T01:35:01.124Z,65.00
2023-04-05T01:37:30.710Z,65.00
2023-04-05T01:39:57.511Z,65.20
2023-04-05T01:42:26.815Z,67.60
2023-04-05T01:44:54.127Z,67.30
2023-04-05T01:47:23.396Z,66.00
2023-04-05T01:49:52.190Z,66.90
2023-04-05T01:52:18.777Z,67.90
2023-04-05T01:54:47.529Z,68.00
2023-04-05T01:57:14.071Z,67.50
2023-04-05T01:59:43.012Z,67.10
2023-04-05T02:02:09.554Z,67.00
2023-04-05T02:04:36.178Z,66.30
2023-04-05T02:07:03.639Z,65.70
2023-04-05T02:09:30.417Z,65.10
2023-04-05T02:11:57.225Z,65.20
2023-04-05T02:14:24.591Z,66.20
2023-04-05T02:16:53.671Z,66.70
2023-04-05T02:19:23.001Z,66.30
2023-04-05T02:21:53.701Z,66.80
2023-04-05T02:24:22.816Z,67.80
2023-04-05T02:26:49.397Z,66.90
2023-04-05T02:29:15.985Z,66.90
2023-04-05T02:31:44.933Z,67.20
2023-04-05T02:34:11.617Z,66.90
2023-04-05T02:36:38.188Z,67.20
2023-04-05T02:39:04.798Z,67.40
2023-04-05T02:41:31.377Z,68.20
2023-04-05T02:44:00.358Z,68.80
2023-04-05T02:46:27.021Z,68.20
2023-04-05T02:48:53.585Z,67.70
2023-04-05T02:51:20.503Z,67.90
2023-04-05T02:53:48.143Z,68.80
2023-04-05T02:56:14.817Z,70.10
2023-04-05T02:58:41.645Z,68.60
2023-04-05T03:01:08.844Z,68.60
2023-04-05T03:03:35.688Z,68.80
2023-04-05T03:06:10.064Z,68.40
2023-04-05T03:08:38.728Z,68.60
2023-04-05T03:11:06.542Z,69.20
2023-04-05T03:13:33.273Z,69.70
2023-04-05T03:15:59.842Z,70.60
2023-04-05T03:18:26.805Z,71.00
2023-04-05T03:20:59.437Z,68.60
2023-04-05T03:23:27.288Z,67.50
2023-04-05T03:26:01.284Z,66.80
2023-04-05T03:28:28.320Z,67.00
2023-04-05T03:30:55.298Z,66.80
2023-04-05T03:33:21.986Z,66.80
2023-04-05T03:35:48.821Z,66.20
2023-04-05T03:38:15.805Z,66.40
2023-04-05T03:40:42.555Z,66.50
2023-04-05T03:43:11.739Z,66.40
2023-04-05T03:45:38.441Z,66.70
2023-04-05T03:48:05.565Z,67.90
2023-04-05T03:50:34.672Z,68.10
2023-04-05T03:53:01.457Z,67.50
2023-04-05T03:55:28.126Z,68.90
2023-04-05T03:57:54.866Z,68.40
2023-04-05T04:00:23.807Z,68.30
2023-04-05T04:02:52.342Z,70.10
2023-04-05T04:05:19.397Z,70.20
2023-04-05T04:07:47.131Z,69.90
2023-04-05T04:10:14.785Z,69.80
2023-04-05T04:12:41.331Z,70.40
2023-04-05T04:15:08.027Z,69.70
2023-04-05T04:17:35.637Z,68.90
2023-04-05T04:20:07.712Z,69.70
2023-04-05T04:22:36.783Z,70.20
2023-04-05T04:25:05.764Z,69.90
2023-04-05T04:27:32.486Z,68.70
2023-04-05T04:30:04.056Z,69.10
2023-04-05T04:32:55.298Z,68.90
2023-04-05T04:35:24.971Z,68.70
2023-04-05T04:37:58.047Z,68.80
2023-04-05T04:40:25.765Z,70.10
2023-04-05T04:42:52.376Z,71.10
2023-04-05T04:45:22.151Z,71.20
2023-04-05T04:47:49.310Z,70.00
2023-04-05T04:50:16.388Z,70.70
2023-04-05T04:52:45.521Z,69.50
2023-04-05T04:55:15.322Z,69.90
2023-04-05T04:57:42.331Z,69.60
2023-04-05T05:00:14.927Z,69.90
2023-04-05T05:02:44.257Z,70.10
2023-04-05T05:05:13.580Z,69.10
2023-04-05T05:07:44.131Z,69.70
2023-04-05T05:10:16.085Z,69.90
2023-04-05T05:12:43.343Z,70.30
2023-04-05T05:15:10.431Z,70.30
2023-04-05T05:17:37.533Z,69.90
2023-04-05T05:20:11.028Z,69.10
2023-04-05T05:22:40.609Z,70.40
2023-04-05T05:25:07.581Z,70.00
2023-04-05T05:27:38.836Z,70.00
2023-04-05T05:30:10.610Z,70.10
2023-04-05T05:32:43.101Z,69.40
2023-04-05T05:35:09.751Z,69.20
2023-04-05T05:37:37.461Z,69.20
2023-04-05T05:40:06.716Z,68.80
2023-04-05T05:42:34.116Z,70.60
2023-04-05T05:45:04.827Z,69.10
2023-04-05T05:47:31.604Z,69.60
2023-04-05T05:49:58.355Z,69.90
2023-04-05T05:52:24.929Z,69.90
2023-04-05T05:54:51.480Z,69.80
2023-04-05T05:57:18.039Z,69.00
2023-04-05T05:59:46.902Z,70.50
2023-04-05T06:02:16.305Z,70.70
2023-04-05T06:04:44.034Z,71.00
2023-04-05T06:07:11.126Z,69.70
2023-04-05T06:09:37.944Z,70.00
2023-04-05T06:12:04.613Z,70.30
2023-04-05T06:14:31.226Z,70.30
2023-04-05T06:16:58.131Z,69.70
2023-04-05T06:19:24.705Z,69.90
2023-04-05T06:21:51.274Z,68.90
2023-04-05T06:24:17.857Z,69.40
2023-04-05T06:26:44.468Z,69.80
2023-04-05T06:29:11.266Z,69.20
2023-04-05T06:31:37.922Z,69.70
2023-04-05T06:34:04.870Z,69.70
2023-04-05T06:36:31.971Z,69.10
2023-04-05T06:38:59.296Z,68.60
2023-04-05T06:41:28.377Z,68.60
2023-04-05T06:43:56.071Z,68.00
2023-04-05T06:46:25.228Z,67.70
2023-04-05T06:48:52.326Z,68.00
2023-04-05T06:51:21.400Z,67.70
2023-04-05T06:53:48.057Z,67.60
2023-04-05T06:56:14.625Z,67.60
2023-04-05T06:58:41.267Z,67.50
2023-04-05T07:01:07.925Z,66.90
2023-04-05T07:03:36.913Z,65.90
2023-04-05T07:06:04.194Z,65.50
2023-04-05T07:08:34.439Z,65.40
2023-04-05T07:11:01.337Z,58.80
2023-04-05T07:13:27.987Z,50.60
2023-04-05T07:16:01.822Z,46.50
2023-04-05T07:18:29.806Z,44.40
2023-04-05T07:45:38.618Z,50.90
2023-04-05T07:48:05.457Z,51.30
2023-04-05T07:50:32.149Z,52.50
2023-04-05T07:52:58.717Z,52.70
2023-04-05T07:55:27.671Z,51.90
2023-04-05T07:57:54.206Z,51.50
2023-04-05T08:00:21.376Z,50.00
2023-04-05T08:02:48.033Z,50.70
2023-04-05T08:05:14.713Z,50.50
2023-04-05T08:07:41.560Z,50.00
2023-04-05T08:10:10.604Z,51.10
2023-04-05T08:12:39.693Z,49.80
2023-04-05T08:15:09.419Z,49.50
2023-04-05T08:17:36.041Z,48.50
2023-04-05T08:20:02.797Z,49.20
2023-04-05T08:22:29.509Z,50.00
2023-04-05T08:24:56.200Z,49.90
2023-04-05T08:27:22.832Z,50.00
2023-04-05T08:29:49.451Z,49.50
2023-04-05T08:32:16.008Z,47.90
2023-04-05T08:34:44.938Z,47.10
2023-04-05T08:37:11.540Z,46.90
2023-04-05T08:39:40.604Z,47.80
2023-04-05T08:42:07.166Z,47.00
2023-04-05T08:44:36.464Z,46.20
2023-04-05T08:47:03.077Z,45.50
2023-04-05T08:49:29.646Z,45.60
2023-04-05T08:51:58.593Z,45.80
2023-04-05T08:54:25.433Z,45.10
2023-04-05T08:56:54.511Z,45.30
2023-04-05T08:59:21.685Z,44.80
2023-04-05T09:01:49.899Z,44.20
2023-04-05T09:04:27.304Z,44.50
2023-04-05T09:06:55.485Z,44.30
2023-04-05T09:09:22.663Z,43.60
2023-04-05T09:11:49.873Z,42.30
2023-04-05T09:14:16.900Z,42.80
2023-04-05T09:16:43.588Z,41.10
2023-04-05T09:19:10.614Z,43.30
2023-04-05T09:21:56.074Z,41.30
2023-04-05T09:24:35.052Z,43.10
2023-04-05T09:27:28.068Z,41.30
2023-04-05T09:29:54.612Z,41.20
2023-04-05T09:32:25.604Z,41.40
2023-04-05T09:34:55.640Z,41.40
2023-04-05T09:37:22.404Z,42.60
2023-04-05T09:40:01.672Z,41.90
2023-04-05T09:42:31.466Z,40.20
2023-04-05T09:45:02.684Z,40.10
2023-04-05T09:47:34.651Z,42.80
2023-04-05T09:50:01.789Z,42.00
2023-04-05T09:52:29.365Z,41.90
2023-04-05T09:54:58.980Z,41.90
2023-04-05T09:57:32.506Z,40.80
2023-04-05T09:59:59.072Z,41.90
2023-04-05T10:02:26.051Z,42.20
2023-04-05T10:04:52.717Z,40.70
2023-04-05T10:07:21.613Z,39.90
2023-04-05T10:09:48.549Z,39.10
2023-04-05T10:12:26.787Z,41.90
2023-04-05T10:14:56.991Z,42.30
2023-04-05T10:17:25.914Z,42.00
2023-04-05T10:20:07.870Z,40.60
2023-04-05T10:22:53.337Z,41.00
2023-04-05T10:25:19.865Z,39.70
2023-04-05T10:27:53.375Z,41.50
2023-04-05T10:30:19.994Z,41.70
2023-04-05T10:33:02.374Z,40.10
2023-04-05T10:35:36.583Z,40.70
2023-04-05T10:38:03.168Z,38.70
2023-04-05T10:40:32.476Z,39.90
2023-04-05T10:43:03.249Z,40.80
2023-04-05T10:45:35.661Z,40.10
2023-04-05T10:48:10.382Z,39.50
2023-04-05T10:50:37.220Z,39.40
2023-04-05T10:53:07.526Z,40.00
2023-04-05T10:55:34.296Z,41.40
2023-04-05T10:58:01.218Z,40.50
2023-04-05T11:00:28.056Z,41.20
2023-04-05T11:02:56.097Z,41.00
2023-04-05T11:05:35.710Z,39.00
2023-04-05T11:08:04.027Z,39.80
2023-04-05T11:10:33.270Z,39.70
2023-04-05T11:13:02.284Z,39.00
2023-04-05T11:15:28.910Z,39.50
2023-04-05T11:18:11.911Z,39.80
2023-04-05T11:20:42.584Z,40.10
2023-04-05T11:23:10.235Z,40.50
2023-04-05T11:25:40.533Z,38.90
2023-04-05T11:28:08.596Z,40.30
2023-04-05T11:30:47.928Z,38.70
2023-04-05T11:33:33.094Z,37.70
2023-04-05T11:36:03.092Z,38.30
2023-04-05T11:38:29.697Z,39.70
2023-04-05T11:41:17.436Z,38.20
2023-04-05T15:34:41.609Z,34.50
2023-04-05T15:37:08.239Z,35.60
2023-04-05T15:39:35.018Z,33.70
2023-04-05T15:42:02.925Z,35.40
2023-04-05T15:44:29.490Z,33.40
2023-04-05T15:47:00.895Z,35.20
2023-04-05T15:49:29.588Z,34.80
2023-04-05T15:51:56.244Z,35.60
2023-04-05T15:54:22.847Z,34.10
2023-04-05T15:56:49.473Z,33.40
2023-04-05T15:59:16.187Z,35.30
2023-04-05T16:01:43.283Z,34.00
2023-04-05T16:04:10.252Z,34.10
2023-04-05T16:06:36.921Z,35.50
2023-04-05T16:09:03.851Z,34.80
2023-04-05T16:11:30.969Z,34.90
2023-04-05T16:13:57.593Z,36.00
2023-04-05T16:16:35.370Z,34.40
2023-04-05T16:19:13.766Z,35.20
2023-04-05T16:21:40.693Z,35.70
2023-04-05T16:24:09.583Z,34.10
2023-04-05T16:26:36.397Z,35.70
2023-04-05T16:29:03.267Z,35.20
2023-04-05T16:31:30.069Z,35.50
2023-04-05T16:33:57.114Z,34.70
2023-04-05T16:36:25.916Z,34.50
2023-04-05T16:38:54.598Z,35.30
2023-04-05T16:41:23.631Z,35.90
2023-04-05T16:43:51.288Z,35.60
2023-04-05T16:46:20.532Z,34.60
2023-04-05T16:48:47.278Z,34.60
2023-04-05T16:51:15.932Z,35.00
2023-04-05T16:53:43.027Z,36.80
2023-04-05T16:56:12.025Z,34.80
2023-04-05T16:58:38.602Z,36.60
2023-04-05T17:01:05.794Z,35.40
2023-04-05T17:03:32.823Z,36.50
2023-04-05T17:05:59.423Z,37.00
2023-04-05T17:08:28.973Z,36.40
2023-04-05T17:10:57.739Z,36.80
2023-04-05T17:13:24.518Z,35.70
2023-04-05T17:15:53.501Z,35.40
2023-04-05T17:18:20.147Z,35.70
2023-04-05T17:20:46.707Z,37.20
2023-04-05T17:23:13.343Z,35.00
2023-04-05T17:25:40.067Z,36.90
2023-04-05T17:28:09.677Z,35.10
2023-04-05T17:30:36.355Z,37.00
2023-04-05T17:33:03.023Z,36.60
2023-04-05T17:35:29.732Z,36.30
2023-04-05T17:37:56.416Z,36.30
2023-04-05T17:40:25.386Z,37.40
2023-04-05T17:42:54.371Z,35.60
2023-04-05T17:45:21.049Z,36.60
2023-04-05T17:47:47.797Z,36.10
2023-04-05T17:50:14.406Z,37.70
2023-04-05T17:52:41.156Z,36.10
2023-04-05T17:55:08.005Z,36.90
2023-04-05T17:57:37.178Z,36.60
2023-04-05T18:00:04.355Z,37.10
2023-04-05T18:02:37.061Z,37.80
2023-04-05T18:05:04.662Z,38.50
2023-04-05T18:07:31.349Z,39.50
2023-04-05T18:09:58.063Z,39.30
2023-04-05T18:12:24.794Z,39.90
2023-04-05T18:14:51.588Z,40.00
2023-04-05T18:17:20.636Z,40.40
2023-04-05T18:19:51.401Z,40.90
2023-04-05T18:22:18.229Z,41.30
2023-04-05T18:24:44.906Z,41.90
2023-04-05T18:27:11.676Z,40.90
2023-04-05T18:29:39.320Z,40.80
2023-04-05T18:32:07.141Z,41.10
2023-04-05T18:34:34.605Z,40.90
2023-04-05T18:37:04.181Z,41.30
2023-04-05T18:39:31.492Z,41.10
2023-04-05T18:41:58.250Z,41.80
2023-04-05T18:44:24.943Z,42.60
2023-04-05T18:46:51.824Z,42.80
2023-04-05T18:49:20.578Z,43.80
2023-04-05T18:51:48.815Z,44.20
2023-04-05T18:54:18.208Z,44.10
2023-04-05T18:56:47.161Z,44.10
2023-04-05T18:59:16.287Z,44.20
2023-04-05T19:01:43.348Z,44.00
2023-04-05T19:04:12.497Z,44.60
2023-04-05T19:06:39.202Z,45.20
2023-04-05T19:09:06.491Z,45.30
2023-04-05T19:11:33.405Z,45.30
2023-04-05T19:14:01.733Z,45.20
2023-04-05T19:16:33.162Z,45.10
2023-04-05T19:19:03.710Z,44.20
2023-04-05T19:21:30.977Z,44.30
2023-04-05T19:23:57.868Z,44.90
2023-04-05T19:26:24.659Z,44.80
2023-04-05T19:28:51.452Z,45.30
2023-04-05T19:31:18.189Z,45.80
2023-04-05T19:33:44.900Z,46.00
2023-04-05T19:36:11.891Z,45.80
2023-04-05T19:38:41.227Z,45.80
2023-04-05T19:41:10.052Z,45.90
2023-04-05T19:43:40.998Z,46.70
2023-04-05T19:46:09.058Z,47.30
2023-04-05T19:48:44.051Z,47.40
2023-04-05T19:51:11.868Z,47.80
2023-04-05T19:53:51.549Z,48.30
2023-04-05T19:56:25.678Z,48.60
2023-04-05T19:59:02.911Z,48.30
2023-04-05T20:01:37.525Z,48.00
2023-04-05T20:04:10.317Z,48.10
2023-04-05T20:06:37.141Z,48.90
2023-04-05T20:09:05.451Z,48.90
2023-04-05T20:11:32.990Z,49.10
2023-04-05T20:14:01.959Z,49.50
2023-04-05T20:16:30.972Z,49.70
2023-04-05T20:18:59.417Z,49.90
2023-04-05T20:21:26.191Z,49.70
2023-04-05T20:23:55.585Z,50.10
2023-04-05T20:26:27.113Z,50.00
2023-04-05T20:28:54.535Z,49.60
2023-04-05T20:31:25.675Z,50.00
2023-04-05T20:33:52.428Z,49.60
2023-04-05T20:36:20.684Z,49.10
2023-04-05T20:38:50.648Z,49.40
2023-04-05T20:41:18.267Z,49.90
2023-04-05T20:43:47.546Z,50.80
2023-04-05T20:46:17.094Z,51.90
2023-04-05T20:48:43.908Z,51.90
2023-04-05T20:51:10.920Z,52.00
2023-04-05T20:53:38.292Z,52.10
2023-04-05T20:56:08.742Z,52.30
2023-04-05T20:58:41.033Z,52.80
2023-04-05T21:01:08.052Z,53.40
2023-04-05T21:03:36.629Z,54.20
2023-04-05T21:06:04.965Z,53.50
2023-04-05T21:08:34.902Z,54.10
2023-04-05T21:11:03.983Z,54.40
2023-04-05T21:13:30.725Z,54.20
2023-04-05T21:16:00.119Z,53.70
2023-04-05T21:18:27.111Z,53.80
2023-04-05T21:20:54.256Z,54.00
2023-04-05T21:23:28.050Z,54.20
2023-04-05T21:25:55.890Z,54.10
2023-04-05T21:28:25.705Z,54.50
2023-04-05T21:30:52.542Z,55.10
2023-04-05T21:33:19.884Z,54.60
2023-04-05T21:35:46.698Z,55.60
2023-04-05T21:38:16.099Z,55.50
2023-04-05T21:40:44.630Z,55.60
2023-04-05T21:43:15.189Z,56.20
2023-04-05T21:45:41.976Z,55.50
2023-04-05T21:48:08.706Z,55.50
2023-04-05T21:50:36.485Z,55.80
2023-04-05T21:53:05.423Z,56.00
2023-04-05T21:55:33.296Z,55.90
2023-04-05T21:57:59.969Z,56.40
2023-04-05T22:00:29.034Z,56.50
2023-04-05T22:02:55.899Z,57.30
2023-04-05T22:05:36.460Z,56.60
2023-04-05T22:08:05.681Z,56.40
2023-04-05T22:10:32.820Z,56.70
2023-04-05T22:12:59.513Z,56.70
2023-04-05T22:15:28.367Z,56.80
2023-04-05T22:17:55.167Z,57.40
2023-04-05T22:20:21.861Z,57.10
2023-04-05T22:22:48.595Z,57.30
2023-04-05T22:25:15.558Z,57.10
2023-04-05T22:27:42.271Z,58.10
2023-04-05T22:30:11.479Z,57.90
2023-04-05T22:32:38.240Z,57.60
2023-04-05T22:35:05.734Z,57.00
2023-04-05T22:37:35.939Z,56.90
2023-04-05T22:40:05.047Z,57.20
2023-04-05T22:42:34.047Z,56.70
2023-04-05T22:45:03.421Z,57.00
2023-04-05T22:47:32.296Z,57.30
2023-04-05T22:49:59.070Z,58.20
2023-04-05T22:52:26.087Z,58.70
2023-04-05T22:54:53.009Z,58.50
2023-04-05T22:57:19.715Z,58.40
2023-04-05T22:59:46.429Z,58.80
2023-04-05T23:02:13.095Z,58.70
2023-04-05T23:04:39.961Z,58.60
2023-04-05T23:07:10.464Z,58.80
2023-04-05T23:09:37.458Z,58.80
2023-04-05T23:12:11.021Z,58.00
2023-04-05T23:14:37.753Z,58.70
2023-04-05T23:17:05.424Z,59.30
2023-04-05T23:19:34.642Z,59.60
2023-04-05T23:22:01.321Z,60.00
2023-04-05T23:24:28.225Z,59.70
2023-04-05T23:26:54.937Z,59.40
2023-04-05T23:29:21.765Z,60.00
2023-04-05T23:31:48.493Z,60.40
2023-04-05T23:34:15.216Z,59.40
2023-04-05T23:36:41.949Z,59.10
2023-04-05T23:39:08.951Z,59.20
2023-04-05T23:41:35.962Z,60.30
2023-04-05T23:44:02.603Z,59.40
2023-04-05T23:46:29.381Z,59.70
2023-04-05T23:48:56.064Z,59.70
2023-04-05T23:51:22.851Z,59.20
2023-04-05T23:53:51.615Z,61.40
2023-04-05T23:56:21.228Z,61.80
2023-04-05T23:58:47.930Z,62.70
